Time;durP1;ratioP1;P1;durP2;ratioP2;P2;SDS_P1;SDS_P2;PMS_P1;PMS_P2;Temp;Humidity;BMP_temperature;BMP_pressure;BME280_temperature;BME280_humidity;BME280_pressure;Samples;Min_cycle;Max_cycle;Signal;HPM_P1;HPM_P2
2022/01/23 00:02:29;;;;;;;38.70;25.83;;;6.00;99.90;;;;;;5018962;28;20037;-88
2022/01/23 00:04:55;;;;;;;36.55;24.58;;;5.90;99.90;;;;;;5029765;28;20037;-86
2022/01/23 00:07:22;;;;;;;37.17;24.33;;;6.00;99.90;;;;;;5034634;28;20028;-88
2022/01/23 00:09:47;;;;;;;38.22;24.20;;;6.00;99.90;;;;;;5043625;28;20033;-88
2022/01/23 00:12:21;;;;;;;38.30;24.65;;;6.00;99.90;;;;;;5029105;28;20041;-87
2022/01/23 00:17:34;;;;;;;;;;;6.00;99.90;;;;;;5033805;28;19916;-87
2022/01/23 00:20:03;;;;;;;40.63;23.50;;;5.90;99.90;;;;;;5030988;28;19913;-88
2022/01/23 00:22:52;;;;;;;40.00;26.13;;;5.90;99.90;;;;;;5026346;28;20048;-88
2022/01/23 00:30:49;;;;;;;43.80;27.20;;;5.90;99.90;;;;;;5019126;28;20068;-89
2022/01/23 00:33:16;;;;;;;37.63;25.27;;;5.90;99.90;;;;;;5031459;28;20098;-90
2022/01/23 00:35:43;;;;;;;41.80;26.42;;;5.90;99.90;;;;;;5032746;28;20034;-89
2022/01/23 00:38:11;;;;;;;35.97;24.48;;;6.00;99.90;;;;;;5024215;28;20113;-90
2022/01/23 00:40:38;;;;;;;39.28;25.15;;;5.90;99.90;;;;;;5020839;28;20033;-89
2022/01/23 00:43:15;;;;;;;42.80;26.30;;;6.00;99.90;;;;;;5024042;28;20192;-89
2022/01/23 00:45:54;;;;;;;34.78;23.92;;;5.90;99.90;;;;;;5024483;28;20018;-89
2022/01/23 00:48:26;;;;;;;42.40;27.50;;;5.90;99.90;;;;;;5026725;28;20064;-89
2022/01/23 00:50:51;;;;;;;44.28;28.52;;;5.90;99.90;;;;;;5034143;28;20018;-89
2022/01/23 00:53:17;;;;;;;39.42;25.20;;;5.90;99.90;;;;;;5031730;28;20185;-89
2022/01/23 00:55:46;;;;;;;41.72;27.95;;;5.90;99.90;;;;;;5025601;28;20037;-90
2022/01/23 00:58:12;;;;;;;38.10;25.55;;;5.90;99.90;;;;;;5023963;28;20034;-89
2022/01/23 01:00:40;;;;;;;37.97;24.67;;;5.90;99.90;;;;;;5027303;28;20030;-89
2022/01/23 01:03:06;;;;;;;38.50;24.70;;;6.00;99.90;;;;;;5023022;28;20056;-89
2022/01/23 01:05:32;;;;;;;33.25;22.50;;;5.90;99.90;;;;;;5016460;28;20810;-89
2022/01/23 01:08:00;;;;;;;38.30;25.33;;;6.00;99.90;;;;;;5022459;28;20052;-90
2022/01/23 01:10:35;;;;;;;38.47;24.50;;;6.00;99.90;;;;;;5024330;28;20049;-88
2022/01/23 01:13:02;;;;;;;34.45;23.17;;;6.00;99.90;;;;;;5025037;28;20021;-88
2022/01/23 01:15:54;;;;;;;39.22;24.52;;;6.00;99.90;;;;;;5036115;28;20025;-88
2022/01/23 01:32:01;;;;;;;34.58;23.08;;;6.00;99.90;;;;;;5036631;28;20401;-89
2022/01/23 01:35:01;;;;;;;35.92;23.80;;;6.00;99.90;;;;;;5035194;28;20049;-90
2022/01/23 01:37:13;;;;;;;33.08;21.70;;;6.00;99.90;;;;;;5035797;28;20056;-89
2022/01/23 01:39:39;;;;;;;35.55;23.48;;;6.00;99.90;;;;;;5035279;28;20483;-88
2022/01/23 01:42:05;;;;;;;35.72;22.77;;;6.00;99.90;;;;;;5034883;28;20114;-89
2022/01/23 01:44:31;;;;;;;35.20;24.00;;;6.00;99.90;;;;;;5034742;28;20116;-90
2022/01/23 01:46:57;;;;;;;40.78;27.00;;;6.00;99.90;;;;;;5034935;28;20064;-90
2022/01/23 01:49:28;;;;;;;45.10;28.38;;;6.00;99.90;;;;;;5034790;28;20071;-90
2022/01/23 01:51:57;;;;;;;44.92;30.10;;;6.00;99.90;;;;;;5034860;28;20537;-90
2022/01/23 01:54:25;;;;;;;50.15;31.35;;;6.00;99.90;;;;;;5035170;28;20030;-90
2022/01/23 02:09:55;;;;;;;39.35;26.15;;;5.90;99.90;;;;;;5017369;28;20084;-91
2022/01/23 02:55:35;;;;;;;39.47;24.65;;;5.80;99.90;;;;;;5017137;28;20040;-89
2022/01/23 02:58:04;;;;;;;36.35;24.10;;;5.80;99.90;;;;;;5041168;28;20057;-88
2022/01/23 03:00:46;;;;;;;39.22;25.20;;;5.80;99.90;;;;;;5030083;28;20022;-88
2022/01/23 03:03:14;;;;;;;37.78;23.00;;;5.70;99.90;;;;;;5046927;28;20029;-88
2022/01/23 03:05:40;;;;;;;34.47;21.92;;;5.80;99.90;;;;;;5041208;28;20022;-88
2022/01/23 03:09:51;;;;;;;37.00;23.08;;;5.80;99.90;;;;;;5045203;28;20041;-88
2022/01/23 03:11:07;;;;;;;36.55;24.42;;;5.80;99.90;;;;;;5024388;28;20038;-91
2022/01/23 03:13:55;;;;;;;41.72;26.33;;;5.80;99.90;;;;;;5053958;28;20026;-90
2022/01/23 03:24:50;;;;;;;36.30;21.98;;;5.70;99.90;;;;;;5049243;28;20025;-89
2022/01/23 03:29:54;;;;;;;35.90;22.63;;;5.80;99.90;;;;;;5027498;28;20080;-90
2022/01/23 03:32:26;;;;;;;35.60;21.58;;;5.80;99.90;;;;;;5016373;28;20497;-89
2022/01/23 03:34:52;;;;;;;37.10;23.60;;;5.80;99.90;;;;;;5020030;28;20053;-90
2022/01/23 03:37:18;;;;;;;37.47;23.92;;;5.80;99.90;;;;;;5016814;28;20014;-89
2022/01/23 03:39:43;;;;;;;37.05;23.50;;;5.80;99.90;;;;;;5015716;28;20046;-91
2022/01/23 03:42:09;;;;;;;37.58;24.42;;;5.80;99.90;;;;;;5014692;28;20022;-90
2022/01/23 03:44:40;;;;;;;39.78;23.70;;;5.80;99.90;;;;;;5016079;28;20029;-90
2022/01/23 03:48:02;;;;;;;35.58;22.58;;;5.80;99.90;;;;;;5015739;28;20022;-90
2022/01/23 03:49:53;;;;;;;34.67;20.88;;;5.80;99.90;;;;;;5024976;28;20025;-88
2022/01/23 03:52:18;;;;;;;35.10;21.23;;;5.80;99.90;;;;;;5034207;28;20149;-89
2022/01/23 03:54:46;;;;;;;33.80;21.48;;;5.80;99.90;;;;;;5033834;28;20497;-90
2022/01/23 03:57:13;;;;;;;38.53;24.80;;;5.80;99.90;;;;;;5034035;28;20114;-90
2022/01/23 03:59:38;;;;;;;33.90;21.92;;;5.80;99.90;;;;;;5034200;28;20026;-90
2022/01/23 04:02:05;;;;;;;36.83;23.40;;;5.80;99.90;;;;;;5033947;28;20021;-90
2022/01/23 04:04:40;;;;;;;32.40;20.83;;;5.80;99.90;;;;;;5033724;28;20120;-88
2022/01/23 04:07:15;;;;;;;32.22;20.95;;;5.80;99.90;;;;;;5033728;28;20026;-90
2022/01/23 04:09:42;;;;;;;34.17;22.20;;;5.80;99.90;;;;;;5032828;28;20471;-90
2022/01/23 04:12:10;;;;;;;34.38;20.42;;;5.90;99.90;;;;;;5010126;28;20074;-90
2022/01/23 04:14:41;;;;;;;32.72;20.40;;;5.90;99.90;;;;;;5010430;28;20025;-90
2022/01/23 04:59:33;;;;;;;;;;;5.80;99.90;;;;;;5038164;28;20483;-89
2022/01/23 05:00:10;;;;;;;31.88;19.20;;;5.80;99.90;;;;;;5017801;28;20095;-90
2022/01/23 05:03:22;;;;;;;33.65;20.38;;;5.80;99.90;;;;;;5015369;28;20391;-90
2022/01/23 05:05:34;;;;;;;31.48;18.88;;;5.90;99.90;;;;;;5016270;28;20034;-90
2022/01/23 05:08:03;;;;;;;33.88;20.60;;;5.90;99.90;;;;;;4999154;28;20033;-89
2022/01/23 05:10:29;;;;;;;35.70;20.75;;;6.00;99.90;;;;;;5001877;28;20477;-91
2022/01/23 05:12:55;;;;;;;33.22;20.50;;;5.90;99.90;;;;;;5017052;28;20079;-89
2022/01/23 05:15:22;;;;;;;34.40;21.02;;;5.90;99.90;;;;;;5016482;28;20471;-90
2022/01/23 05:17:48;;;;;;;37.80;22.92;;;5.90;99.90;;;;;;5031533;28;20022;-91
2022/01/23 05:20:15;;;;;;;33.88;21.00;;;5.90;99.90;;;;;;5031862;28;20121;-90
2022/01/23 05:22:46;;;;;;;37.17;21.27;;;5.90;99.90;;;;;;5031826;28;20014;-91
2022/01/23 05:25:21;;;;;;;37.20;21.75;;;6.00;99.90;;;;;;5031808;28;20072;-89
2022/01/23 05:27:51;;;;;;;33.65;20.77;;;5.90;99.90;;;;;;5031150;28;20526;-90
2022/01/23 05:30:17;;;;;;;36.72;21.35;;;5.90;99.90;;;;;;5031641;28;20049;-90
2022/01/23 05:32:43;;;;;;;34.65;21.60;;;5.90;99.90;;;;;;5031663;28;20420;-90
2022/01/23 05:35:11;;;;;;;34.50;21.00;;;5.90;99.90;;;;;;5035037;28;20064;-89
2022/01/23 05:37:37;;;;;;;35.17;20.95;;;5.90;99.90;;;;;;5034375;28;20021;-89
2022/01/23 05:40:05;;;;;;;35.08;21.10;;;5.90;99.90;;;;;;5035811;28;20038;-90
2022/01/23 05:42:30;;;;;;;34.67;21.58;;;5.90;99.90;;;;;;5034809;28;20025;-91
2022/01/23 05:44:56;;;;;;;35.25;22.02;;;5.90;99.90;;;;;;5034694;28;20578;-89
2022/01/23 05:47:22;;;;;;;35.17;22.50;;;5.80;99.90;;;;;;5034710;28;20018;-91
2022/01/23 05:49:48;;;;;;;36.20;22.25;;;5.80;99.90;;;;;;5034631;28;20471;-89
2022/01/23 05:52:14;;;;;;;34.20;21.17;;;5.80;99.90;;;;;;5034737;28;20082;-90
2022/01/23 05:54:39;;;;;;;33.97;21.20;;;5.80;99.90;;;;;;5033933;28;20524;-91
2022/01/23 05:57:05;;;;;;;33.47;21.38;;;5.80;99.90;;;;;;5034297;28;20021;-90
2022/01/23 05:59:31;;;;;;;33.47;20.80;;;5.80;99.90;;;;;;5022636;28;20033;-90
2022/01/23 06:01:57;;;;;;;38.03;23.00;;;5.80;99.90;;;;;;5032786;28;20021;-90
2022/01/23 06:04:24;;;;;;;37.67;22.52;;;5.70;99.90;;;;;;5036845;28;20028;-88
2022/01/23 06:06:50;;;;;;;36.63;22.52;;;5.70;99.90;;;;;;5033465;28;20044;-89
2022/01/23 06:09:16;;;;;;;36.97;23.38;;;5.70;99.90;;;;;;5037856;28;20029;-90
2022/01/23 06:11:42;;;;;;;38.60;23.13;;;5.70;99.90;;;;;;5036079;28;20041;-89
2022/01/23 06:14:09;;;;;;;37.38;22.05;;;5.70;99.90;;;;;;5034133;28;20430;-91
2022/01/23 06:16:39;;;;;;;38.83;23.00;;;5.70;99.90;;;;;;5017933;28;20535;-89
2022/01/23 06:19:05;;;;;;;36.05;21.73;;;5.70;99.90;;;;;;5025494;28;20029;-90
2022/01/23 06:21:30;;;;;;;35.25;21.60;;;5.70;99.90;;;;;;5035007;28;20066;-88
2022/01/23 06:24:14;;;;;;;34.60;22.15;;;5.70;99.90;;;;;;5042830;28;20033;-89
2022/01/23 06:26:44;;;;;;;33.42;20.45;;;5.60;99.90;;;;;;5034280;28;20020;-90
2022/01/23 06:29:11;;;;;;;34.17;21.20;;;5.60;99.90;;;;;;5034130;28;20078;-89
2022/01/23 06:31:39;;;;;;;34.88;20.98;;;5.60;99.90;;;;;;5034127;28;20025;-90
2022/01/23 06:34:09;;;;;;;33.97;21.00;;;5.60;99.90;;;;;;5017875;28;20475;-92
2022/01/23 06:36:36;;;;;;;32.20;20.27;;;5.60;99.90;;;;;;5021613;28;20021;-90
2022/01/23 06:39:04;;;;;;;34.97;21.80;;;5.60;99.90;;;;;;5033552;28;20050;-90
2022/01/23 06:41:30;;;;;;;34.47;20.75;;;5.60;99.90;;;;;;5034290;28;20013;-91
2022/01/23 06:43:56;;;;;;;32.35;20.58;;;5.60;99.90;;;;;;5017800;28;20116;-91
2022/01/23 06:46:22;;;;;;;33.67;20.50;;;5.60;99.90;;;;;;5033841;28;20021;-90
2022/01/23 06:48:47;;;;;;;34.60;19.90;;;5.70;99.90;;;;;;5034937;28;20424;-91
2022/01/23 06:51:13;;;;;;;36.35;21.67;;;5.70;99.90;;;;;;5017636;28;20018;-90
2022/01/23 06:53:38;;;;;;;34.33;20.75;;;5.70;99.90;;;;;;5017429;28;20028;-90
2022/01/23 06:56:04;;;;;;;34.53;21.27;;;5.70;99.90;;;;;;5017902;28;20022;-91
2022/01/23 06:58:30;;;;;;;35.35;21.17;;;5.70;99.90;;;;;;5020524;28;20068;-90
2022/01/23 07:00:56;;;;;;;31.08;19.85;;;5.70;99.90;;;;;;5026678;28;20608;-90
2022/01/23 07:03:21;;;;;;;30.70;19.98;;;5.70;99.90;;;;;;5029724;28;20025;-90
2022/01/23 07:05:47;;;;;;;37.13;22.88;;;5.70;99.90;;;;;;5035570;28;20036;-89
2022/01/23 07:08:13;;;;;;;33.13;21.58;;;5.70;99.90;;;;;;5033291;28;20022;-90
2022/01/23 07:10:38;;;;;;;31.15;20.25;;;5.70;99.90;;;;;;5020373;28;20045;-90
2022/01/23 07:13:04;;;;;;;32.38;20.88;;;5.70;99.90;;;;;;5033435;28;20030;-90
2022/01/23 07:15:29;;;;;;;33.00;19.67;;;5.70;99.90;;;;;;5034285;28;20364;-91
2022/01/23 07:17:55;;;;;;;33.45;19.92;;;5.70;99.90;;;;;;5033783;28;20021;-90
2022/01/23 07:20:21;;;;;;;29.50;19.33;;;5.70;99.90;;;;;;5033315;28;20080;-91
2022/01/23 07:22:47;;;;;;;34.42;20.80;;;5.70;99.90;;;;;;5027869;28;20026;-91
2022/01/23 07:25:12;;;;;;;31.80;20.13;;;5.70;99.90;;;;;;5017676;28;20034;-91
2022/01/23 07:27:45;;;;;;;32.92;20.17;;;5.70;99.90;;;;;;5017316;28;20048;-91
2022/01/23 07:30:24;;;;;;;30.10;18.45;;;5.80;99.90;;;;;;5029970;28;20022;-90
2022/01/23 07:32:49;;;;;;;30.45;19.58;;;5.70;99.90;;;;;;5013481;28;20022;-90
2022/01/23 07:35:15;;;;;;;33.13;19.75;;;5.70;99.90;;;;;;5014664;28;20541;-89
2022/01/23 07:37:41;;;;;;;38.13;22.90;;;5.70;99.90;;;;;;5030700;28;20033;-90
2022/01/23 07:40:08;;;;;;;37.47;22.58;;;5.80;99.90;;;;;;5033364;28;20058;-90
2022/01/23 07:42:34;;;;;;;38.55;21.90;;;5.80;99.90;;;;;;5033389;28;20104;-90
2022/01/23 07:45:01;;;;;;;36.05;22.42;;;5.80;99.90;;;;;;5033393;28;20037;-90
2022/01/23 07:47:27;;;;;;;35.28;20.40;;;5.70;99.90;;;;;;5033104;28;20022;-91
2022/01/23 07:49:53;;;;;;;35.78;22.17;;;5.70;99.90;;;;;;5034328;28;20031;-91
2022/01/23 07:52:19;;;;;;;43.65;25.75;;;5.80;99.90;;;;;;5021960;28;20475;-91
2022/01/23 07:54:45;;;;;;;39.92;24.90;;;5.80;99.90;;;;;;5032045;28;20548;-90
2022/01/23 07:57:10;;;;;;;46.05;27.02;;;5.80;99.90;;;;;;5029584;28;20017;-90
2022/01/23 07:59:36;;;;;;;38.42;23.95;;;5.80;99.90;;;;;;5024564;28;20391;-92
2022/01/23 08:02:02;;;;;;;45.17;26.40;;;5.70;99.90;;;;;;5020089;28;20103;-89
2022/01/23 08:04:29;;;;;;;44.75;25.55;;;5.80;99.90;;;;;;5034264;28;20144;-92
2022/01/23 08:07:11;;;;;;;43.58;26.85;;;5.70;99.90;;;;;;5026600;28;20024;-92
2022/01/23 08:09:37;;;;;;;52.92;30.65;;;5.80;99.90;;;;;;5036965;28;20030;-91
2022/01/23 08:12:04;;;;;;;47.65;27.92;;;5.80;99.90;;;;;;5020613;28;20042;-91
2022/01/23 08:14:29;;;;;;;44.83;25.77;;;5.80;99.90;;;;;;5033338;28;20067;-91
2022/01/23 08:16:55;;;;;;;42.75;24.88;;;5.80;99.90;;;;;;5019543;28;20825;-91
2022/01/23 08:19:21;;;;;;;40.25;24.02;;;5.90;99.90;;;;;;5020266;28;20043;-90
2022/01/23 08:21:46;;;;;;;41.00;23.67;;;5.80;99.90;;;;;;5018620;28;20037;-91
2022/01/23 08:24:12;;;;;;;38.72;22.52;;;5.90;99.90;;;;;;5032231;28;20613;-90
2022/01/23 08:26:38;;;;;;;39.42;24.10;;;5.90;99.90;;;;;;5018873;28;20014;-90
2022/01/23 08:29:07;;;;;;;36.50;21.50;;;5.90;99.90;;;;;;5018926;28;20037;-88
2022/01/23 08:31:33;;;;;;;35.05;21.10;;;5.90;99.90;;;;;;5030393;28;20116;-89
2022/01/23 08:33:59;;;;;;;36.55;21.05;;;5.90;99.90;;;;;;5034245;28;20057;-89
2022/01/23 08:36:25;;;;;;;32.65;19.80;;;5.90;99.90;;;;;;5019077;28;20021;-89
2022/01/23 08:38:50;;;;;;;32.13;19.17;;;6.00;99.90;;;;;;5023947;28;20041;-89
2022/01/23 08:43:46;;;;;;;35.65;20.95;;;6.00;99.90;;;;;;5044311;28;20041;-89
2022/01/23 08:46:13;;;;;;;35.03;21.52;;;6.00;99.90;;;;;;5024937;28;20018;-90
2022/01/23 08:48:40;;;;;;;34.17;20.95;;;6.10;99.90;;;;;;5040134;28;20029;-89
2022/01/23 08:51:06;;;;;;;34.38;20.83;;;6.10;99.90;;;;;;5035143;28;20028;-89
2022/01/23 08:53:31;;;;;;;33.17;20.48;;;6.10;99.90;;;;;;5023707;28;20021;-87
2022/01/23 08:55:57;;;;;;;31.20;19.63;;;6.20;99.90;;;;;;5036366;28;20028;-88
2022/01/23 08:58:23;;;;;;;33.72;20.10;;;6.20;99.90;;;;;;5034334;28;20044;-90
2022/01/23 09:00:49;;;;;;;31.40;18.40;;;6.20;99.90;;;;;;5035664;28;20017;-87
2022/01/23 09:03:14;;;;;;;34.17;19.13;;;6.30;99.90;;;;;;5027390;28;20091;-89
2022/01/23 09:05:40;;;;;;;31.58;20.05;;;6.20;99.90;;;;;;5023775;28;20381;-87
2022/01/23 09:08:06;;;;;;;32.05;19.60;;;6.30;99.90;;;;;;5037662;28;20032;-90
2022/01/23 09:10:40;;;;;;;32.20;19.38;;;6.30;99.90;;;;;;5020206;28;20048;-88
2022/01/23 09:13:15;;;;;;;32.13;18.48;;;6.30;99.90;;;;;;5026774;28;20032;-89
2022/01/23 09:15:41;;;;;;;30.38;18.50;;;6.40;99.90;;;;;;5017991;28;20026;-89
2022/01/23 09:18:08;;;;;;;33.72;19.05;;;6.40;99.90;;;;;;5017188;28;20108;-90
2022/01/23 09:20:34;;;;;;;29.08;18.35;;;6.40;99.90;;;;;;5035979;28;20109;-89
2022/01/23 09:23:00;;;;;;;28.75;18.05;;;6.40;99.90;;;;;;5035762;28;20471;-91
2022/01/23 09:25:25;;;;;;;32.58;18.83;;;6.50;99.90;;;;;;5035836;28;20030;-89
2022/01/23 09:27:52;;;;;;;29.48;18.10;;;6.50;99.90;;;;;;5032837;28;20026;-89
2022/01/23 09:30:19;;;;;;;28.38;17.77;;;6.50;99.90;;;;;;5029014;28;20018;-88
2022/01/23 09:32:47;;;;;;;26.67;16.67;;;6.60;99.90;;;;;;5031650;28;20017;-91
2022/01/23 09:35:14;;;;;;;30.08;18.67;;;6.60;99.90;;;;;;5033135;28;20108;-89
2022/01/23 09:37:50;;;;;;;30.55;18.88;;;6.60;99.90;;;;;;5020625;28;20432;-84
2022/01/23 09:40:16;;;;;;;28.88;18.00;;;6.60;99.90;;;;;;5036569;28;20487;-85
2022/01/23 09:43:07;;;;;;;26.90;17.00;;;6.60;99.90;;;;;;5019773;28;20045;-85
2022/01/23 09:45:34;;;;;;;25.10;16.23;;;6.60;99.90;;;;;;5039250;28;20030;-91
2022/01/23 09:48:01;;;;;;;26.67;17.38;;;6.60;99.90;;;;;;5035080;28;20034;-89
2022/01/23 09:50:52;;;;;;;28.33;18.27;;;6.70;99.90;;;;;;5042732;28;20033;-86
2022/01/23 09:53:58;;;;;;;26.92;16.80;;;6.70;99.90;;;;;;5040582;28;20022;-86
2022/01/23 09:56:44;;;;;;;27.38;16.40;;;6.70;99.90;;;;;;5044655;28;20033;-86
2022/01/23 09:59:15;;;;;;;28.15;17.33;;;6.70;99.90;;;;;;5021927;28;20037;-89
2022/01/23 10:01:59;;;;;;;29.60;17.23;;;6.70;99.90;;;;;;5035146;23;20042;-84
2022/01/23 10:04:30;;;;;;;29.35;17.70;;;6.70;99.90;;;;;;5003918;28;20028;-89
2022/01/23 10:07:05;;;;;;;31.48;18.77;;;6.70;99.90;;;;;;4983400;28;20022;-86
2022/01/23 10:09:32;;;;;;;26.30;17.23;;;6.70;99.90;;;;;;4996968;28;20018;-90
2022/01/23 10:11:58;;;;;;;31.35;18.88;;;6.80;99.90;;;;;;5015628;28;20026;-90
2022/01/23 10:14:24;;;;;;;30.58;19.20;;;6.80;99.90;;;;;;4998205;28;20048;-89
2022/01/23 10:16:50;;;;;;;28.67;18.23;;;6.80;99.90;;;;;;4996917;28;20500;-87
2022/01/23 10:19:16;;;;;;;30.15;18.88;;;6.80;99.90;;;;;;4997526;28;20038;-89
2022/01/23 10:21:44;;;;;;;29.67;17.70;;;6.80;99.90;;;;;;4997074;28;20083;-89
2022/01/23 10:24:12;;;;;;;30.10;18.27;;;6.80;99.90;;;;;;4995779;28;20634;-91
2022/01/23 10:26:54;;;;;;;30.25;18.67;;;6.90;99.90;;;;;;4979123;28;20048;-91
2022/01/23 10:29:37;;;;;;;26.15;16.00;;;6.90;99.90;;;;;;4979423;28;20034;-92
2022/01/23 10:32:23;;;;;;;24.37;14.57;;;6.90;99.90;;;;;;4980180;28;20089;-89
2022/01/23 10:35:00;;;;;;;21.70;14.18;;;7.00;99.90;;;;;;5002975;28;20030;-88
2022/01/23 10:37:35;;;;;;;23.23;14.73;;;7.00;99.90;;;;;;5010361;28;20027;-88
2022/01/23 10:40:47;;;;;;;25.73;14.55;;;7.10;99.90;;;;;;5010025;28;20030;-84
2022/01/23 10:48:47;;;;;;;21.30;13.05;;;7.30;99.90;;;;;;5098195;28;20082;-83
2022/01/23 10:51:36;;;;;;;21.65;13.20;;;7.30;99.90;;;;;;5080152;28;20029;-90
2022/01/23 10:54:14;;;;;;;18.33;11.57;;;7.40;99.90;;;;;;5076670;28;20036;-88
2022/01/23 10:56:57;;;;;;;12.55;8.38;;;7.50;99.90;;;;;;5080332;28;20115;-84
2022/01/23 10:59:24;;;;;;;10.32;5.93;;;7.50;99.90;;;;;;5098260;28;20032;-88
2022/01/23 11:02:03;;;;;;;6.47;3.85;;;7.60;99.90;;;;;;5078000;28;20505;-89
2022/01/23 11:04:29;;;;;;;5.22;2.78;;;7.60;99.90;;;;;;5068924;28;20015;-94
2022/01/23 11:06:56;;;;;;;4.18;2.17;;;7.60;99.90;;;;;;5077194;28;20012;-90
2022/01/23 11:09:37;;;;;;;3.42;2.00;;;7.60;99.90;;;;;;5087890;28;20115;-89
2022/01/23 11:12:13;;;;;;;3.10;1.67;;;7.70;99.90;;;;;;5078224;28;20033;-92
2022/01/23 11:17:26;;;;;;;4.72;2.38;;;7.80;99.90;;;;;;5086347;28;20078;-90
2022/01/23 11:19:58;;;;;;;5.60;2.88;;;7.90;99.90;;;;;;5072136;28;20047;-89
2022/01/23 11:22:31;;;;;;;5.15;3.00;;;8.00;99.90;;;;;;5058624;28;20021;-91
2022/01/23 11:25:00;;;;;;;5.87;2.97;;;8.00;99.90;;;;;;5057923;28;20486;-90
2022/01/23 11:27:39;;;;;;;3.80;2.35;;;8.00;99.90;;;;;;5063523;28;20021;-90
2022/01/23 11:30:11;;;;;;;6.55;2.88;;;8.00;99.90;;;;;;5049908;28;20032;-86
2022/01/23 11:32:39;;;;;;;5.25;3.33;;;8.00;99.90;;;;;;5087423;22;20059;-89
2022/01/23 11:35:19;;;;;;;7.38;4.65;;;7.90;99.90;;;;;;5062252;28;20442;-92
2022/01/23 11:37:49;;;;;;;7.05;3.88;;;8.00;99.90;;;;;;5063265;28;20098;-90
2022/01/23 11:54:48;;;;;;;5.63;3.40;;;7.80;99.90;;;;;;5069707;28;20035;-93
2022/01/23 11:57:38;;;;;;;6.03;3.30;;;7.80;99.90;;;;;;5052224;28;20032;-92
2022/01/23 12:00:07;;;;;;;5.30;3.28;;;7.80;99.90;;;;;;5035850;28;20056;-91
2022/01/23 12:02:38;;;;;;;5.25;3.25;;;7.70;99.90;;;;;;5059957;28;20049;-91
2022/01/23 12:05:10;;;;;;;4.82;2.63;;;7.80;99.90;;;;;;5058936;28;20074;-92
2022/01/23 12:07:36;;;;;;;3.67;2.00;;;7.80;99.90;;;;;;5063567;28;20059;-86
2022/01/23 12:10:27;;;;;;;4.30;2.00;;;7.80;99.90;;;;;;5089742;28;20083;-90
2022/01/23 12:13:33;;;;;;;3.25;1.98;;;7.90;99.90;;;;;;5072052;28;20016;-93
2022/01/23 12:16:25;;;;;;;2.67;1.70;;;7.90;99.90;;;;;;5060913;28;20032;-92
2022/01/23 12:18:49;;;;;;;3.10;1.77;;;7.90;99.90;;;;;;5080171;28;20037;-92
2022/01/23 12:21:28;;;;;;;2.38;1.45;;;7.90;99.90;;;;;;5061442;28;20035;-93
2022/01/23 12:24:01;;;;;;;2.22;1.05;;;7.90;99.90;;;;;;5059591;28;20017;-92
2022/01/23 12:26:27;;;;;;;1.63;0.90;;;7.90;99.90;;;;;;5060832;28;20024;-92
2022/01/23 12:28:53;;;;;;;1.30;0.70;;;8.00;99.90;;;;;;5071848;28;20036;-93
2022/01/23 12:31:33;;;;;;;1.05;0.70;;;8.00;99.90;;;;;;5052865;28;20120;-89
2022/01/23 12:34:01;;;;;;;0.93;0.60;;;8.00;99.90;;;;;;5064403;28;20029;-92
2022/01/23 12:36:31;;;;;;;1.38;0.80;;;8.00;99.90;;;;;;5044511;28;20024;-90
2022/01/23 12:39:06;;;;;;;1.40;0.73;;;8.00;99.90;;;;;;5039714;28;20055;-91
2022/01/23 12:41:32;;;;;;;1.70;0.60;;;8.00;99.90;;;;;;5040047;28;20025;-90
2022/01/23 12:44:24;;;;;;;1.02;0.60;;;7.90;99.90;;;;;;5041595;28;20036;-90
2022/01/23 12:47:01;;;;;;;0.65;0.50;;;7.90;99.90;;;;;;5059358;28;20381;-92
2022/01/23 12:49:33;;;;;;;0.75;0.60;;;7.90;99.90;;;;;;5051452;28;20497;-93
2022/01/23 12:52:05;;;;;;;1.10;0.65;;;7.80;99.90;;;;;;5059237;28;20066;-90
2022/01/23 12:54:33;;;;;;;1.13;0.60;;;7.80;99.90;;;;;;5058189;28;20028;-91
2022/01/23 12:57:09;;;;;;;0.88;0.50;;;7.80;99.90;;;;;;5060122;28;20021;-91
2022/01/23 12:59:36;;;;;;;1.88;0.63;;;7.80;99.90;;;;;;5056082;28;20028;-91
2022/01/23 13:02:08;;;;;;;1.00;0.50;;;7.80;99.90;;;;;;5054850;28;20513;-94
2022/01/23 13:04:38;;;;;;;0.98;0.50;;;7.70;99.90;;;;;;5058104;28;20078;-90
2022/01/23 13:07:12;;;;;;;0.80;0.57;;;7.70;99.90;;;;;;5058630;28;20458;-91
2022/01/23 13:09:51;;;;;;;0.95;0.47;;;7.70;99.90;;;;;;5058822;28;20028;-91
2022/01/23 13:15:18;;;;;;;0.60;0.50;;;7.80;99.90;;;;;;5076103;28;20033;-90
2022/01/23 13:32:11;;;;;;;0.60;0.40;;;7.80;99.90;;;;;;5075649;28;20080;-88
2022/01/23 13:34:48;;;;;;;0.90;0.50;;;7.90;99.90;;;;;;5050665;28;20021;-87
2022/01/23 13:37:16;;;;;;;1.38;0.70;;;7.80;99.90;;;;;;5047063;28;20112;-88
2022/01/23 13:40:05;;;;;;;2.15;0.82;;;7.80;99.90;;;;;;5055401;28;20021;-90
2022/01/23 13:51:29;;;;;;;1.67;0.98;;;7.80;99.90;;;;;;5065541;28;20024;-88
2022/01/23 13:59:53;;;;;;;2.42;1.35;;;7.80;99.90;;;;;;5058563;28;20044;-92
2022/01/23 14:02:59;;;;;;;2.85;1.55;;;7.80;99.90;;;;;;5044321;28;20040;-89
2022/01/23 14:05:34;;;;;;;2.22;1.42;;;7.80;99.90;;;;;;4982151;28;20054;-90
2022/01/23 14:08:01;;;;;;;3.83;1.60;;;7.80;99.90;;;;;;5031120;28;20033;-91
2022/01/23 14:10:34;;;;;;;3.03;1.80;;;7.70;99.90;;;;;;5059027;28;20112;-91
2022/01/23 14:13:14;;;;;;;3.30;2.27;;;7.70;99.90;;;;;;5058022;28;20028;-90
2022/01/23 14:15:44;;;;;;;3.00;2.00;;;7.70;99.90;;;;;;5054004;28;20442;-90
2022/01/23 14:18:13;;;;;;;3.05;1.70;;;7.70;99.90;;;;;;5037563;28;20033;-91
2022/01/23 14:20:44;;;;;;;2.95;1.77;;;7.70;99.90;;;;;;5038367;28;20024;-90
2022/01/23 14:23:16;;;;;;;4.88;1.73;;;7.70;99.90;;;;;;5037444;28;20029;-90
2022/01/23 14:26:00;;;;;;;5.22;1.88;;;7.70;99.90;;;;;;5037734;28;20029;-89
2022/01/23 14:28:28;;;;;;;;;;;7.70;99.90;;;;;;5040300;28;20028;-91
2022/01/23 14:30:59;;;;;;;2.15;1.40;;;7.70;99.90;;;;;;5056865;28;19905;-90
2022/01/23 14:33:33;;;;;;;2.65;1.50;;;7.70;99.90;;;;;;5057032;28;20470;-91
2022/01/23 14:36:18;;;;;;;2.97;1.70;;;7.70;99.90;;;;;;5056779;28;20040;-90
2022/01/23 14:39:07;;;;;;;3.40;1.90;;;7.70;99.90;;;;;;5057627;28;20029;-91
2022/01/23 14:41:36;;;;;;;2.78;1.67;;;7.60;99.90;;;;;;5057550;28;20020;-89
2022/01/23 14:44:14;;;;;;;2.90;1.73;;;7.70;99.90;;;;;;5055421;28;20115;-90
2022/01/23 14:46:40;;;;;;;3.40;1.85;;;7.70;99.90;;;;;;5038078;28;20474;-91
2022/01/23 14:49:10;;;;;;;3.13;2.00;;;7.60;99.90;;;;;;5048957;28;20031;-91
2022/01/23 14:51:38;;;;;;;3.63;2.08;;;7.70;99.90;;;;;;5057821;28;20024;-91
2022/01/23 14:54:04;;;;;;;2.80;1.70;;;7.70;99.90;;;;;;5058112;28;20048;-92
2022/01/23 14:56:32;;;;;;;3.60;2.13;;;7.60;99.90;;;;;;5057824;28;20021;-88
2022/01/23 14:58:58;;;;;;;4.35;1.90;;;7.60;99.90;;;;;;5057927;28;20183;-91
2022/01/23 15:01:24;;;;;;;3.72;1.73;;;7.60;99.90;;;;;;5057465;28;20060;-91
2022/01/23 15:03:52;;;;;;;3.40;2.00;;;7.60;99.90;;;;;;5058905;28;20587;-90
2022/01/23 15:06:19;;;;;;;3.75;2.38;;;7.60;99.90;;;;;;5059092;28;20029;-91
2022/01/23 15:08:45;;;;;;;2.72;1.77;;;7.60;99.90;;;;;;5060392;28;20016;-90
2022/01/23 15:11:11;;;;;;;3.58;1.75;;;7.50;99.90;;;;;;5070220;28;20023;-91
2022/01/23 15:13:37;;;;;;;3.90;2.20;;;7.50;99.90;;;;;;5069765;28;20626;-91
2022/01/23 15:16:03;;;;;;;3.80;2.20;;;7.50;99.90;;;;;;5060862;28;20209;-91
2022/01/23 15:18:29;;;;;;;4.07;2.25;;;7.50;99.90;;;;;;5058206;28;20115;-90
2022/01/23 15:20:55;;;;;;;3.80;2.30;;;7.50;99.90;;;;;;5057664;28;20024;-90
2022/01/23 15:23:21;;;;;;;4.22;2.33;;;7.50;99.90;;;;;;5057742;28;20020;-91
2022/01/23 15:25:47;;;;;;;3.67;2.40;;;7.40;99.90;;;;;;5057654;28;20052;-90
2022/01/23 15:28:14;;;;;;;4.03;2.17;;;7.40;99.90;;;;;;5057295;28;20026;-90
2022/01/23 15:30:40;;;;;;;4.60;2.53;;;7.50;99.90;;;;;;5054158;28;20021;-91
2022/01/23 15:33:06;;;;;;;3.92;2.20;;;7.40;99.90;;;;;;5057222;28;20083;-90
2022/01/23 15:35:36;;;;;;;3.83;2.22;;;7.40;99.90;;;;;;5057497;28;20085;-90
2022/01/23 15:38:02;;;;;;;3.88;2.33;;;7.40;99.90;;;;;;5057550;28;20017;-90
2022/01/23 15:40:29;;;;;;;3.63;2.38;;;7.40;99.90;;;;;;5057218;28;20032;-89
2022/01/23 15:42:55;;;;;;;3.30;1.95;;;7.40;99.90;;;;;;5057387;28;20017;-90
2022/01/23 15:45:23;;;;;;;2.65;1.80;;;7.40;99.90;;;;;;5057450;28;20551;-91
2022/01/23 15:47:48;;;;;;;3.65;2.17;;;7.40;99.90;;;;;;5054876;28;20017;-90
2022/01/23 15:50:19;;;;;;;3.08;1.95;;;7.30;99.90;;;;;;5056844;28;20016;-88
2022/01/23 15:52:45;;;;;;;3.67;2.10;;;7.40;99.90;;;;;;5057395;28;20016;-91
2022/01/23 15:55:12;;;;;;;3.08;1.70;;;7.30;99.90;;;;;;5056887;28;20097;-91
2022/01/23 15:57:39;;;;;;;3.33;2.03;;;7.30;99.90;;;;;;5056588;28;20371;-91
2022/01/23 16:00:07;;;;;;;2.88;1.90;;;7.30;99.90;;;;;;5056333;28;20028;-90
2022/01/23 16:02:33;;;;;;;4.20;2.22;;;7.30;99.90;;;;;;5056770;28;20054;-91
2022/01/23 16:04:59;;;;;;;3.53;1.90;;;7.30;99.90;;;;;;5057069;28;20478;-90
2022/01/23 16:07:25;;;;;;;4.57;2.38;;;7.30;99.90;;;;;;5057157;28;20429;-90
2022/01/23 16:09:51;;;;;;;3.92;2.42;;;7.30;99.90;;;;;;5059864;28;20039;-91